sensor_id;sensor_type;location;lat;lon;timestamp;P1;durP1;ratioP1;P2;durP2;ratioP2
1344;SDS011;15375;48.540;9.268;2024-03-23T00:55:50;6.50;;;4.73;;
1344;SDS011;15375;48.540;9.268;2024-03-23T00:58:16;4.87;;;4.37;;
1344;SDS011;15375;48.540;9.268;2024-03-23T01:00:41;6.57;;;4.43;;
1344;SDS011;15375;48.540;9.268;2024-03-23T01:03:07;7.30;;;5.23;;
1344;SDS011;15375;48.540;9.268;2024-03-23T01:05:32;4.33;;;3.90;;
1344;SDS011;15375;48.540;9.268;2024-03-23T01:07:57;5.63;;;4.43;;
1344;SDS011;15375;48.540;9.268;2024-03-23T01:10:23;5.47;;;3.80;;
1344;SDS011;15375;48.540;9.268;2024-03-23T01:12:48;6.23;;;4.63;;
1344;SDS011;15375;48.540;9.268;2024-03-23T01:15:13;5.37;;;4.70;;
1344;SDS011;15375;48.540;9.268;2024-03-23T01:17:39;4.87;;;4.47;;
1344;SDS011;15375;48.540;9.268;2024-03-23T01:20:04;4.40;;;4.00;;
1344;SDS011;15375;48.540;9.268;2024-03-23T01:22:31;5.47;;;4.30;;
1344;SDS011;15375;48.540;9.268;2024-03-23T01:24:56;6.70;;;3.90;;
1344;SDS011;15375;48.540;9.268;2024-03-23T01:27:22;5.00;;;3.97;;
1344;SDS011;15375;48.540;9.268;2024-03-23T01:29:48;4.23;;;3.83;;
1344;SDS011;15375;48.540;9.268;2024-03-23T01:32:13;5.23;;;4.43;;
1344;SDS011;15375;48.540;9.268;2024-03-23T01:34:38;5.50;;;4.77;;
1344;SDS011;15375;48.540;9.268;2024-03-23T01:37:04;5.30;;;4.30;;
1344;SDS011;15375;48.540;9.268;2024-03-23T01:39:29;7.23;;;4.20;;
1344;SDS011;15375;48.540;9.268;2024-03-23T01:41:55;8.37;;;5.07;;
1344;SDS011;15375;48.540;9.268;2024-03-23T01:44:20;5.30;;;4.80;;
1344;SDS011;15375;48.540;9.268;2024-03-23T01:46:45;8.40;;;5.37;;
1344;SDS011;15375;48.540;9.268;2024-03-23T01:49:11;12.63;;;4.20;;
1344;SDS011;15375;48.540;9.268;2024-03-23T01:51:37;5.57;;;4.57;;
1344;SDS011;15375;48.540;9.268;2024-03-23T01:54:03;5.90;;;4.93;;
1344;SDS011;15375;48.540;9.268;2024-03-23T01:56:32;6.53;;;4.70;;
1344;SDS011;15375;48.540;9.268;2024-03-23T01:59:04;6.93;;;5.10;;
1344;SDS011;15375;48.540;9.268;2024-03-23T02:01:30;8.27;;;4.37;;
1344;SDS011;15375;48.540;9.268;2024-03-23T02:03:57;7.00;;;4.73;;
1344;SDS011;15375;48.540;9.268;2024-03-23T02:06:22;5.10;;;4.60;;
1344;SDS011;15375;48.540;9.268;2024-03-23T02:08:49;5.50;;;4.00;;
1344;SDS011;15375;48.540;9.268;2024-03-23T02:11:15;6.07;;;5.47;;
1344;SDS011;15375;48.540;9.268;2024-03-23T02:13:40;4.87;;;4.37;;
1344;SDS011;15375;48.540;9.268;2024-03-23T02:16:05;10.30;;;4.47;;
1344;SDS011;15375;48.540;9.268;2024-03-23T02:18:31;5.13;;;4.63;;
1344;SDS011;15375;48.540;9.268;2024-03-23T02:21:00;5.40;;;4.90;;
1344;SDS011;15375;48.540;9.268;2024-03-23T02:23:25;6.53;;;4.97;;
1344;SDS011;15375;48.540;9.268;2024-03-23T02:25:50;5.93;;;5.30;;
1344;SDS011;15375;48.540;9.268;2024-03-23T02:28:16;4.60;;;4.20;;
1344;SDS011;15375;48.540;9.268;2024-03-23T02:30:42;5.80;;;5.20;;
1344;SDS011;15375;48.540;9.268;2024-03-23T02:33:07;6.23;;;5.73;;
1344;SDS011;15375;48.540;9.268;2024-03-23T02:35:33;4.90;;;4.50;;
1344;SDS011;15375;48.540;9.268;2024-03-23T02:37:58;5.90;;;4.33;;
1344;SDS011;15375;48.540;9.268;2024-03-23T02:40:24;5.53;;;4.93;;
1344;SDS011;15375;48.540;9.268;2024-03-23T02:42:50;7.27;;;4.83;;
1344;SDS011;15375;48.540;9.268;2024-03-23T02:45:16;5.73;;;4.90;;
1344;SDS011;15375;48.540;9.268;2024-03-23T02:47:42;5.63;;;5.10;;
1344;SDS011;15375;48.540;9.268;2024-03-23T02:50:07;6.50;;;4.30;;
1344;SDS011;15375;48.540;9.268;2024-03-23T02:52:34;5.23;;;4.70;;
1344;SDS011;15375;48.540;9.268;2024-03-23T02:54:59;5.23;;;4.73;;
1344;SDS011;15375;48.540;9.268;2024-03-23T02:57:26;8.13;;;4.90;;
1344;SDS011;15375;48.540;9.268;2024-03-23T02:59:52;4.87;;;4.37;;
1344;SDS011;15375;48.540;9.268;2024-03-23T03:02:18;6.23;;;4.40;;
1344;SDS011;15375;48.540;9.268;2024-03-23T03:04:43;6.20;;;4.60;;
1344;SDS011;15375;48.540;9.268;2024-03-23T03:07:08;7.23;;;4.77;;
1344;SDS011;15375;48.540;9.268;2024-03-23T03:09:34;5.07;;;4.67;;
1344;SDS011;15375;48.540;9.268;2024-03-23T03:12:00;5.03;;;4.53;;
1344;SDS011;15375;48.540;9.268;2024-03-23T03:14:29;5.30;;;4.43;;
1344;SDS011;15375;48.540;9.268;2024-03-23T03:16:55;4.70;;;4.30;;
1344;SDS011;15375;48.540;9.268;2024-03-23T03:19:20;6.40;;;4.63;;
1344;SDS011;15375;48.540;9.268;2024-03-23T03:21:46;5.20;;;4.80;;
1344;SDS011;15375;48.540;9.268;2024-03-23T03:24:12;9.20;;;4.30;;
1344;SDS011;15375;48.540;9.268;2024-03-23T03:26:38;4.00;;;3.70;;
1344;SDS011;15375;48.540;9.268;2024-03-23T03:29:03;4.07;;;3.67;;
1344;SDS011;15375;48.540;9.268;2024-03-23T03:31:28;6.13;;;4.47;;
1344;SDS011;15375;48.540;9.268;2024-03-23T03:33:54;7.90;;;6.37;;
1344;SDS011;15375;48.540;9.268;2024-03-23T03:36:19;9.80;;;6.80;;
1344;SDS011;15375;48.540;9.268;2024-03-23T03:38:45;8.53;;;6.57;;
1344;SDS011;15375;48.540;9.268;2024-03-23T03:41:10;7.60;;;5.47;;
1344;SDS011;15375;48.540;9.268;2024-03-23T03:43:36;7.00;;;5.10;;
1344;SDS011;15375;48.540;9.268;2024-03-23T03:46:01;8.83;;;5.93;;
1344;SDS011;15375;48.540;9.268;2024-03-23T03:48:27;6.83;;;4.87;;
1344;SDS011;15375;48.540;9.268;2024-03-23T03:50:53;4.60;;;4.10;;
1344;SDS011;15375;48.540;9.268;2024-03-23T03:53:19;3.90;;;3.50;;
1344;SDS011;15375;48.540;9.268;2024-03-23T03:55:45;3.60;;;3.30;;
1344;SDS011;15375;48.540;9.268;2024-03-23T03:58:10;4.47;;;3.90;;
1344;SDS011;15375;48.540;9.268;2024-03-23T04:00:36;4.33;;;3.53;;
1344;SDS011;15375;48.540;9.268;2024-03-23T04:03:01;4.53;;;3.57;;
1344;SDS011;15375;48.540;9.268;2024-03-23T04:05:27;6.10;;;3.27;;
1344;SDS011;15375;48.540;9.268;2024-03-23T04:07:52;7.60;;;3.53;;
1344;SDS011;15375;48.540;9.268;2024-03-23T04:10:17;4.73;;;2.97;;
1344;SDS011;15375;48.540;9.268;2024-03-23T04:12:43;6.77;;;3.30;;
1344;SDS011;15375;48.540;9.268;2024-03-23T04:15:09;5.53;;;3.40;;
1344;SDS011;15375;48.540;9.268;2024-03-23T04:17:35;3.77;;;3.30;;
1344;SDS011;15375;48.540;9.268;2024-03-23T04:20:01;4.10;;;3.00;;
1344;SDS011;15375;48.540;9.268;2024-03-23T04:22:28;3.27;;;2.97;;
1344;SDS011;15375;48.540;9.268;2024-03-23T04:24:54;4.30;;;3.07;;
1344;SDS011;15375;48.540;9.268;2024-03-23T04:27:20;4.20;;;3.20;;
1344;SDS011;15375;48.540;9.268;2024-03-23T04:29:49;4.20;;;2.83;;
1344;SDS011;15375;48.540;9.268;2024-03-23T04:32:15;3.23;;;2.93;;
1344;SDS011;15375;48.540;9.268;2024-03-23T04:34:41;3.17;;;2.87;;
1344;SDS011;15375;48.540;9.268;2024-03-23T04:37:06;3.50;;;2.73;;
1344;SDS011;15375;48.540;9.268;2024-03-23T04:39:32;5.43;;;3.30;;
1344;SDS011;15375;48.540;9.268;2024-03-23T04:41:58;3.40;;;3.13;;
1344;SDS011;15375;48.540;9.268;2024-03-23T04:44:23;2.80;;;2.60;;
1344;SDS011;15375;48.540;9.268;2024-03-23T04:46:48;4.27;;;3.10;;
1344;SDS011;15375;48.540;9.268;2024-03-23T04:49:14;2.90;;;2.50;;
1344;SDS011;15375;48.540;9.268;2024-03-23T04:51:39;3.43;;;2.33;;
1344;SDS011;15375;48.540;9.268;2024-03-23T04:54:06;4.17;;;2.87;;
1344;SDS011;15375;48.540;9.268;2024-03-23T04:56:32;2.63;;;2.43;;
1344;SDS011;15375;48.540;9.268;2024-03-23T04:58:58;4.60;;;3.07;;
1344;SDS011;15375;48.540;9.268;2024-03-23T05:01:26;4.00;;;2.87;;
1344;SDS011;15375;48.540;9.268;2024-03-23T05:03:52;3.73;;;2.73;;
1344;SDS011;15375;48.540;9.268;2024-03-23T05:06:18;3.23;;;2.93;;
1344;SDS011;15375;48.540;9.268;2024-03-23T05:08:43;4.50;;;2.53;;
1344;SDS011;15375;48.540;9.268;2024-03-23T05:11:09;2.43;;;2.23;;
1344;SDS011;15375;48.540;9.268;2024-03-23T05:13:34;4.77;;;3.20;;
1344;SDS011;15375;48.540;9.268;2024-03-23T05:15:59;3.20;;;2.73;;
1344;SDS011;15375;48.540;9.268;2024-03-23T05:18:25;3.53;;;3.00;;
1344;SDS011;15375;48.540;9.268;2024-03-23T05:20:55;3.97;;;2.77;;
1344;SDS011;15375;48.540;9.268;2024-03-23T05:23:28;3.83;;;2.77;;
1344;SDS011;15375;48.540;9.268;2024-03-23T05:25:54;3.27;;;2.90;;
1344;SDS011;15375;48.540;9.268;2024-03-23T05:28:20;3.40;;;3.10;;
1344;SDS011;15375;48.540;9.268;2024-03-23T05:30:55;5.20;;;3.17;;
1344;SDS011;15375;48.540;9.268;2024-03-23T05:33:21;4.57;;;3.83;;
1344;SDS011;15375;48.540;9.268;2024-03-23T05:35:55;3.70;;;3.37;;
1344;SDS011;15375;48.540;9.268;2024-03-23T05:38:21;6.23;;;4.27;;
1344;SDS011;15375;48.540;9.268;2024-03-23T05:40:53;5.67;;;3.40;;
1344;SDS011;15375;48.540;9.268;2024-03-23T05:43:19;4.20;;;3.73;;
1344;SDS011;15375;48.540;9.268;2024-03-23T05:45:45;4.47;;;4.07;;
1344;SDS011;15375;48.540;9.268;2024-03-23T05:48:11;4.80;;;4.40;;
1344;SDS011;15375;48.540;9.268;2024-03-23T05:50:36;5.97;;;5.20;;
1344;SDS011;15375;48.540;9.268;2024-03-23T05:53:02;6.00;;;5.40;;
1344;SDS011;15375;48.540;9.268;2024-03-23T05:55:29;5.93;;;5.43;;
1344;SDS011;15375;48.540;9.268;2024-03-23T05:57:54;5.13;;;4.67;;
1344;SDS011;15375;48.540;9.268;2024-03-23T06:00:20;7.60;;;6.37;;
1344;SDS011;15375;48.540;9.268;2024-03-23T06:02:45;10.10;;;6.77;;
1344;SDS011;15375;48.540;9.268;2024-03-23T06:05:11;7.03;;;6.27;;
1344;SDS011;15375;48.540;9.268;2024-03-23T06:07:37;6.63;;;5.97;;
1344;SDS011;15375;48.540;9.268;2024-03-23T06:10:02;6.77;;;5.60;;
1344;SDS011;15375;48.540;9.268;2024-03-23T06:12:28;7.80;;;5.53;;
1344;SDS011;15375;48.540;9.268;2024-03-23T06:14:53;7.57;;;5.27;;
1344;SDS011;15375;48.540;9.268;2024-03-23T06:17:18;5.93;;;5.30;;
1344;SDS011;15375;48.540;9.268;2024-03-23T06:19:44;6.60;;;5.20;;
1344;SDS011;15375;48.540;9.268;2024-03-23T06:22:10;6.93;;;4.97;;
1344;SDS011;15375;48.540;9.268;2024-03-23T06:24:35;6.17;;;4.90;;
1344;SDS011;15375;48.540;9.268;2024-03-23T06:27:00;4.93;;;4.30;;
1344;SDS011;15375;48.540;9.268;2024-03-23T06:29:26;6.03;;;4.43;;
1344;SDS011;15375;48.540;9.268;2024-03-23T06:31:54;5.80;;;4.97;;
1344;SDS011;15375;48.540;9.268;2024-03-23T06:34:21;6.97;;;4.87;;
1344;SDS011;15375;48.540;9.268;2024-03-23T06:36:48;5.50;;;3.97;;
1344;SDS011;15375;48.540;9.268;2024-03-23T06:39:14;5.97;;;4.70;;
1344;SDS011;15375;48.540;9.268;2024-03-23T06:41:41;4.93;;;4.43;;
1344;SDS011;15375;48.540;9.268;2024-03-23T06:44:07;6.10;;;5.17;;
1344;SDS011;15375;48.540;9.268;2024-03-23T06:46:32;5.17;;;4.07;;
1344;SDS011;15375;48.540;9.268;2024-03-23T06:48:58;6.47;;;4.10;;
1344;SDS011;15375;48.540;9.268;2024-03-23T06:51:23;3.73;;;2.80;;
1344;SDS011;15375;48.540;9.268;2024-03-23T06:53:49;3.80;;;2.87;;
1344;SDS011;15375;48.540;9.268;2024-03-23T06:56:15;3.50;;;2.03;;
1344;SDS011;15375;48.540;9.268;2024-03-23T06:58:40;3.83;;;1.73;;
1344;SDS011;15375;48.540;9.268;2024-03-23T07:01:05;2.63;;;1.60;;
1344;SDS011;15375;48.540;9.268;2024-03-23T07:03:32;1.10;;;1.00;;
1344;SDS011;15375;48.540;9.268;2024-03-23T07:05:57;1.07;;;0.80;;
1344;SDS011;15375;48.540;9.268;2024-03-23T07:08:23;1.30;;;1.00;;
1344;SDS011;15375;48.540;9.268;2024-03-23T07:10:49;1.30;;;0.87;;
1344;SDS011;15375;48.540;9.268;2024-03-23T07:13:14;1.57;;;1.23;;
1344;SDS011;15375;48.540;9.268;2024-03-23T07:15:43;0.90;;;0.73;;
1344;SDS011;15375;48.540;9.268;2024-03-23T07:18:08;0.90;;;0.70;;
1344;SDS011;15375;48.540;9.268;2024-03-23T07:20:33;1.03;;;0.80;;
1344;SDS011;15375;48.540;9.268;2024-03-23T07:22:59;1.17;;;0.70;;
1344;SDS011;15375;48.540;9.268;2024-03-23T07:25:24;1.30;;;1.20;;
1344;SDS011;15375;48.540;9.268;2024-03-23T07:27:52;1.00;;;0.87;;
1344;SDS011;15375;48.540;9.268;2024-03-23T07:30:18;1.57;;;1.40;;
1344;SDS011;15375;48.540;9.268;2024-03-23T07:32:44;1.00;;;0.93;;
1344;SDS011;15375;48.540;9.268;2024-03-23T07:35:09;1.57;;;1.47;;
1344;SDS011;15375;48.540;9.268;2024-03-23T07:37:35;1.93;;;1.83;;
1344;SDS011;15375;48.540;9.268;2024-03-23T07:40:00;1.90;;;1.80;;
1344;SDS011;15375;48.540;9.268;2024-03-23T07:42:25;3.27;;;3.07;;
1344;SDS011;15375;48.540;9.268;2024-03-23T07:44:56;2.07;;;1.87;;
1344;SDS011;15375;48.540;9.268;2024-03-23T07:47:22;3.77;;;3.30;;
1344;SDS011;15375;48.540;9.268;2024-03-23T07:49:48;9.77;;;8.30;;
1344;SDS011;15375;48.540;9.268;2024-03-23T07:52:13;1.27;;;1.10;;
1344;SDS011;15375;48.540;9.268;2024-03-23T07:54:39;1.90;;;1.80;;
1344;SDS011;15375;48.540;9.268;2024-03-23T07:57:04;2.23;;;2.13;;
1344;SDS011;15375;48.540;9.268;2024-03-23T07:59:31;1.27;;;1.27;;
1344;SDS011;15375;48.540;9.268;2024-03-23T08:01:57;1.40;;;0.90;;
1344;SDS011;15375;48.540;9.268;2024-03-23T08:04:22;0.70;;;0.70;;
1344;SDS011;15375;48.540;9.268;2024-03-23T08:06:47;0.70;;;0.67;;
1344;SDS011;15375;48.540;9.268;2024-03-23T08:09:13;0.50;;;0.50;;
1344;SDS011;15375;48.540;9.268;2024-03-23T08:11:38;0.60;;;0.60;;
1344;SDS011;15375;48.540;9.268;2024-03-23T08:14:04;0.60;;;0.53;;
1344;SDS011;15375;48.540;9.268;2024-03-23T08:16:29;0.73;;;0.73;;
1344;SDS011;15375;48.540;9.268;2024-03-23T08:18:55;0.50;;;0.47;;
1344;SDS011;15375;48.540;9.268;2024-03-23T08:21:23;0.93;;;0.37;;
1344;SDS011;15375;48.540;9.268;2024-03-23T08:23:50;5.60;;;1.40;;
1344;SDS011;15375;48.540;9.268;2024-03-23T08:26:16;2.93;;;1.53;;
1344;SDS011;15375;48.540;9.268;2024-03-23T08:28:42;2.80;;;0.97;;
1344;SDS011;15375;48.540;9.268;2024-03-23T08:31:09;2.97;;;1.00;;
1344;SDS011;15375;48.540;9.268;2024-03-23T08:33:36;2.40;;;1.33;;
1344;SDS011;15375;48.540;9.268;2024-03-23T08:36:05;2.13;;;1.20;;
1344;SDS011;15375;48.540;9.268;2024-03-23T08:38:32;3.03;;;0.83;;
1344;SDS011;15375;48.540;9.268;2024-03-23T08:43:30;2.13;;;1.57;;
1344;SDS011;15375;48.540;9.268;2024-03-23T08:46:08;1.80;;;1.07;;
1344;SDS011;15375;48.540;9.268;2024-03-23T08:48:41;5.43;;;1.30;;
1344;SDS011;15375;48.540;9.268;2024-03-23T08:51:10;4.07;;;1.10;;
1344;SDS011;15375;48.540;9.268;2024-03-23T08:53:37;2.37;;;1.53;;
1344;SDS011;15375;48.540;9.268;2024-03-23T08:56:04;2.40;;;1.00;;
1344;SDS011;15375;48.540;9.268;2024-03-23T08:58:31;1.50;;;1.10;;
1344;SDS011;15375;48.540;9.268;2024-03-23T09:01:02;2.50;;;1.50;;
1344;SDS011;15375;48.540;9.268;2024-03-23T09:03:29;2.40;;;1.63;;
1344;SDS011;15375;48.540;9.268;2024-03-23T09:05:54;4.10;;;1.80;;
1344;SDS011;15375;48.540;9.268;2024-03-23T09:08:20;2.13;;;1.40;;
1344;SDS011;15375;48.540;9.268;2024-03-23T09:10:46;1.67;;;1.53;;
1344;SDS011;15375;48.540;9.268;2024-03-23T09:13:12;2.60;;;1.83;;
1344;SDS011;15375;48.540;9.268;2024-03-23T09:15:45;3.53;;;2.27;;
1344;SDS011;15375;48.540;9.268;2024-03-23T09:18:12;3.13;;;1.97;;
1344;SDS011;15375;48.540;9.268;2024-03-23T09:20:37;5.80;;;1.90;;
1344;SDS011;15375;48.540;9.268;2024-03-23T09:23:03;4.63;;;2.30;;
1344;SDS011;15375;48.540;9.268;2024-03-23T09:25:28;2.90;;;1.63;;
1344;SDS011;15375;48.540;9.268;2024-03-23T09:27:53;3.10;;;2.10;;
1344;SDS011;15375;48.540;9.268;2024-03-23T09:30:19;5.97;;;2.83;;
1344;SDS011;15375;48.540;9.268;2024-03-23T09:32:45;3.63;;;2.30;;
1344;SDS011;15375;48.540;9.268;2024-03-23T09:35:10;6.63;;;2.80;;
1344;SDS011;15375;48.540;9.268;2024-03-23T09:37:36;5.57;;;2.97;;
1344;SDS011;15375;48.540;9.268;2024-03-23T09:40:04;2.93;;;2.63;;
1344;SDS011;15375;48.540;9.268;2024-03-23T09:42:32;5.30;;;2.73;;
1344;SDS011;15375;48.540;9.268;2024-03-23T09:44:58;4.53;;;2.97;;
1344;SDS011;15375;48.540;9.268;2024-03-23T09:47:25;6.30;;;3.47;;
1344;SDS011;15375;48.540;9.268;2024-03-23T09:49:51;5.03;;;2.30;;
1344;SDS011;15375;48.540;9.268;2024-03-23T09:52:17;6.60;;;3.00;;
1344;SDS011;15375;48.540;9.268;2024-03-23T09:54:42;5.00;;;3.03;;
1344;SDS011;15375;48.540;9.268;2024-03-23T09:57:08;6.90;;;3.70;;
1344;SDS011;15375;48.540;9.268;2024-03-23T09:59:33;9.63;;;3.43;;
1344;SDS011;15375;48.540;9.268;2024-03-23T10:01:59;9.03;;;3.53;;
1344;SDS011;15375;48.540;9.268;2024-03-23T10:04:39;4.93;;;2.97;;
1344;SDS011;15375;48.540;9.268;2024-03-23T10:07:12;6.57;;;3.53;;
1344;SDS011;15375;48.540;9.268;2024-03-23T10:09:39;5.43;;;3.00;;
1344;SDS011;15375;48.540;9.268;2024-03-23T10:12:08;5.03;;;2.33;;
1344;SDS011;15375;48.540;9.268;2024-03-23T10:14:38;4.30;;;2.20;;
1344;SDS011;15375;48.540;9.268;2024-03-23T10:19:43;2.70;;;2.07;;
1344;SDS011;15375;48.540;9.268;2024-03-23T10:22:13;5.87;;;2.10;;
1344;SDS011;15375;48.540;9.268;2024-03-23T10:24:40;5.90;;;2.20;;
1344;SDS011;15375;48.540;9.268;2024-03-23T10:27:05;4.27;;;3.00;;
1344;SDS011;15375;48.540;9.268;2024-03-23T10:29:31;4.07;;;2.13;;
1344;SDS011;15375;48.540;9.268;2024-03-23T10:32:09;4.87;;;2.33;;
1344;SDS011;15375;48.540;9.268;2024-03-23T10:34:38;3.57;;;2.40;;
1344;SDS011;15375;48.540;9.268;2024-03-23T10:37:04;3.90;;;2.30;;
1344;SDS011;15375;48.540;9.268;2024-03-23T10:39:31;5.07;;;2.70;;
1344;SDS011;15375;48.540;9.268;2024-03-23T10:42:00;4.57;;;2.43;;
1344;SDS011;15375;48.540;9.268;2024-03-23T10:44:26;3.80;;;2.90;;
1344;SDS011;15375;48.540;9.268;2024-03-23T10:46:54;4.40;;;2.67;;
1344;SDS011;15375;48.540;9.268;2024-03-23T10:49:24;7.60;;;3.50;;
1344;SDS011;15375;48.540;9.268;2024-03-23T10:51:51;3.30;;;2.70;;
1344;SDS011;15375;48.540;9.268;2024-03-23T10:54:17;8.30;;;3.67;;
1344;SDS011;15375;48.540;9.268;2024-03-23T10:56:44;3.50;;;2.83;;
1344;SDS011;15375;48.540;9.268;2024-03-23T10:59:10;11.53;;;3.90;;
1344;SDS011;15375;48.540;9.268;2024-03-23T11:01:54;3.10;;;2.80;;
1344;SDS011;15375;48.540;9.268;2024-03-23T11:04:33;5.67;;;3.20;;
1344;SDS011;15375;48.540;9.268;2024-03-23T11:07:00;6.40;;;3.20;;
1344;SDS011;15375;48.540;9.268;2024-03-23T11:12:34;3.37;;;1.97;;
1344;SDS011;15375;48.540;9.268;2024-03-23T11:15:04;3.00;;;2.30;;
1344;SDS011;15375;48.540;9.268;2024-03-23T11:17:30;2.40;;;2.20;;
1344;SDS011;15375;48.540;9.268;2024-03-23T11:19:57;5.77;;;1.90;;
1344;SDS011;15375;48.540;9.268;2024-03-23T11:22:39;6.33;;;2.20;;
1344;SDS011;15375;48.540;9.268;2024-03-23T11:27:40;2.50;;;1.67;;
1344;SDS011;15375;48.540;9.268;2024-03-23T11:30:24;2.50;;;2.17;;
1344;SDS011;15375;48.540;9.268;2024-03-23T11:32:51;1.93;;;1.63;;
1344;SDS011;15375;48.540;9.268;2024-03-23T11:35:28;5.43;;;3.43;;
1344;SDS011;15375;48.540;9.268;2024-03-23T11:40:31;2.50;;;1.60;;
1344;SDS011;15375;48.540;9.268;2024-03-23T11:42:59;2.70;;;1.60;;
1344;SDS011;15375;48.540;9.268;2024-03-23T11:45:25;2.17;;;1.67;;
1344;SDS011;15375;48.540;9.268;2024-03-23T11:48:07;2.00;;;1.47;;
1344;SDS011;15375;48.540;9.268;2024-03-23T11:50:37;6.83;;;2.03;;
1344;SDS011;15375;48.540;9.268;2024-03-23T11:53:06;3.87;;;2.20;;
1344;SDS011;15375;48.540;9.268;2024-03-23T11:55:50;3.47;;;1.70;;
1344;SDS011;15375;48.540;9.268;2024-03-23T11:58:23;1.57;;;1.47;;
1344;SDS011;15375;48.540;9.268;2024-03-23T12:00:50;4.07;;;2.50;;
1344;SDS011;15375;48.540;9.268;2024-03-23T12:03:17;3.93;;;1.73;;
1344;SDS011;15375;48.540;9.268;2024-03-23T12:05:49;7.23;;;1.83;;
1344;SDS011;15375;48.540;9.268;2024-03-23T12:11:05;2.50;;;1.10;;
1344;SDS011;15375;48.540;9.268;2024-03-23T12:13:36;4.20;;;1.20;;
1344;SDS011;15375;48.540;9.268;2024-03-23T12:18:37;7.60;;;2.43;;
1344;SDS011;15375;48.540;9.268;2024-03-23T12:21:05;3.27;;;1.63;;
1344;SDS011;15375;48.540;9.268;2024-03-23T12:23:30;4.50;;;2.50;;
1344;SDS011;15375;48.540;9.268;2024-03-23T12:25:56;5.40;;;2.00;;
1344;SDS011;15375;48.540;9.268;2024-03-23T12:28:21;5.67;;;2.00;;
1344;SDS011;15375;48.540;9.268;2024-03-23T12:30:46;4.80;;;2.50;;
1344;SDS011;15375;48.540;9.268;2024-03-23T12:33:12;4.67;;;2.47;;
1344;SDS011;15375;48.540;9.268;2024-03-23T12:35:37;7.17;;;2.93;;
1344;SDS011;15375;48.540;9.268;2024-03-23T12:38:02;5.70;;;2.60;;
1344;SDS011;15375;48.540;9.268;2024-03-23T12:40:28;4.90;;;2.33;;
1344;SDS011;15375;48.540;9.268;2024-03-23T12:42:54;3.90;;;1.40;;
1344;SDS011;15375;48.540;9.268;2024-03-23T12:45:19;3.13;;;1.60;;
1344;SDS011;15375;48.540;9.268;2024-03-23T12:47:45;2.50;;;1.73;;
1344;SDS011;15375;48.540;9.268;2024-03-23T12:50:10;11.73;;;2.90;;
1344;SDS011;15375;48.540;9.268;2024-03-23T12:52:36;9.10;;;3.57;;
1344;SDS011;15375;48.540;9.268;2024-03-23T12:55:02;5.20;;;2.73;;
1344;SDS011;15375;48.540;9.268;2024-03-23T12:57:30;6.70;;;2.70;;
1344;SDS011;15375;48.540;9.268;2024-03-23T12:59:56;5.60;;;2.40;;
1344;SDS011;15375;48.540;9.268;2024-03-23T13:02:21;2.80;;;2.10;;
1344;SDS011;15375;48.540;9.268;2024-03-23T13:04:50;3.27;;;2.97;;
1344;SDS011;15375;48.540;9.268;2024-03-23T13:07:17;3.63;;;1.70;;
1344;SDS011;15375;48.540;9.268;2024-03-23T13:09:42;4.13;;;2.67;;
1344;SDS011;15375;48.540;9.268;2024-03-23T13:12:08;9.90;;;2.73;;
1344;SDS011;15375;48.540;9.268;2024-03-23T13:14:33;7.17;;;4.23;;
1344;SDS011;15375;48.540;9.268;2024-03-23T13:16:59;2.90;;;1.93;;
1344;SDS011;15375;48.540;9.268;2024-03-23T13:19:24;3.80;;;1.47;;
1344;SDS011;15375;48.540;9.268;2024-03-23T13:21:55;1.90;;;1.00;;
1344;SDS011;15375;48.540;9.268;2024-03-23T13:24:24;4.30;;;3.43;;
1344;SDS011;15375;48.540;9.268;2024-03-23T13:26:50;2.30;;;1.80;;
1344;SDS011;15375;48.540;9.268;2024-03-23T13:29:16;3.30;;;2.07;;
1344;SDS011;15375;48.540;9.268;2024-03-23T13:31:42;3.73;;;2.40;;
1344;SDS011;15375;48.540;9.268;2024-03-23T13:34:07;4.73;;;2.30;;
1344;SDS011;15375;48.540;9.268;2024-03-23T13:36:33;3.83;;;2.20;;
1344;SDS011;15375;48.540;9.268;2024-03-23T13:38:58;3.10;;;2.23;;
1344;SDS011;15375;48.540;9.268;2024-03-23T13:41:24;7.80;;;2.13;;
1344;SDS011;15375;48.540;9.268;2024-03-23T13:43:50;3.67;;;1.43;;
1344;SDS011;15375;48.540;9.268;2024-03-23T13:46:15;2.50;;;2.30;;
1344;SDS011;15375;48.540;9.268;2024-03-23T13:48:40;3.77;;;1.47;;
1344;SDS011;15375;48.540;9.268;2024-03-23T13:51:07;2.10;;;1.33;;
1344;SDS011;15375;48.540;9.268;2024-03-23T13:53:32;1.67;;;1.57;;
1344;SDS011;15375;48.540;9.268;2024-03-23T13:55:58;11.87;;;6.10;;
1344;SDS011;15375;48.540;9.268;2024-03-23T13:58:23;10.90;;;9.17;;
1344;SDS011;15375;48.540;9.268;2024-03-23T14:01:00;6.60;;;5.50;;
1344;SDS011;15375;48.540;9.268;2024-03-23T14:03:25;4.60;;;4.20;;
1344;SDS011;15375;48.540;9.268;2024-03-23T14:05:52;4.53;;;2.27;;
1344;SDS011;15375;48.540;9.268;2024-03-23T14:08:18;5.23;;;3.30;;
1344;SDS011;15375;48.540;9.268;2024-03-23T14:10:44;11.83;;;8.90;;
1344;SDS011;15375;48.540;9.268;2024-03-23T14:13:09;8.97;;;3.30;;
1344;SDS011;15375;48.540;9.268;2024-03-23T14:15:35;10.00;;;7.10;;
1344;SDS011;15375;48.540;9.268;2024-03-23T14:18:02;4.90;;;4.20;;
1344;SDS011;15375;48.540;9.268;2024-03-23T14:20:27;2.80;;;1.17;;
1344;SDS011;15375;48.540;9.268;2024-03-23T14:22:53;1.03;;;0.93;;
1344;SDS011;15375;48.540;9.268;2024-03-23T14:25:18;4.33;;;1.33;;
1344;SDS011;15375;48.540;9.268;2024-03-23T14:27:44;15.40;;;11.23;;
1344;SDS011;15375;48.540;9.268;2024-03-23T14:30:10;9.80;;;6.30;;
1344;SDS011;15375;48.540;9.268;2024-03-23T14:32:37;7.17;;;4.33;;
1344;SDS011;15375;48.540;9.268;2024-03-23T14:35:06;30.67;;;15.50;;
1344;SDS011;15375;48.540;9.268;2024-03-23T14:37:36;17.10;;;8.47;;
1344;SDS011;15375;48.540;9.268;2024-03-23T14:40:02;21.53;;;11.77;;
1344;SDS011;15375;48.540;9.268;2024-03-23T14:42:27;9.70;;;5.10;;
1344;SDS011;15375;48.540;9.268;2024-03-23T14:44:53;2.87;;;1.73;;
1344;SDS011;15375;48.540;9.268;2024-03-23T14:47:19;5.70;;;1.63;;
1344;SDS011;15375;48.540;9.268;2024-03-23T14:49:45;2.07;;;1.10;;
1344;SDS011;15375;48.540;9.268;2024-03-23T14:52:12;2.53;;;1.40;;
1344;SDS011;15375;48.540;9.268;2024-03-23T14:54:39;3.37;;;1.20;;
1344;SDS011;15375;48.540;9.268;2024-03-23T14:57:04;4.40;;;1.23;;
1344;SDS011;15375;48.540;9.268;2024-03-23T14:59:29;4.93;;;1.37;;
1344;SDS011;15375;48.540;9.268;2024-03-23T15:01:55;2.60;;;1.27;;
1344;SDS011;15375;48.540;9.268;2024-03-23T15:04:20;3.43;;;1.30;;
1344;SDS011;15375;48.540;9.268;2024-03-23T15:06:46;1.30;;;0.97;;
1344;SDS011;15375;48.540;9.268;2024-03-23T15:09:14;3.30;;;1.30;;
1344;SDS011;15375;48.540;9.268;2024-03-23T15:11:40;1.90;;;1.03;;
1344;SDS011;15375;48.540;9.268;2024-03-23T15:14:05;1.77;;;0.93;;
1344;SDS011;15375;48.540;9.268;2024-03-23T15:16:32;1.23;;;0.60;;
1344;SDS011;15375;48.540;9.268;2024-03-23T15:18:57;2.20;;;0.60;;
1344;SDS011;15375;48.540;9.268;2024-03-23T15:21:23;4.90;;;2.87;;
1344;SDS011;15375;48.540;9.268;2024-03-23T15:23:48;4.47;;;1.87;;
1344;SDS011;15375;48.540;9.268;2024-03-23T15:26:13;4.37;;;2.33;;
1344;SDS011;15375;48.540;9.268;2024-03-23T15:28:39;8.30;;;3.97;;
1344;SDS011;15375;48.540;9.268;2024-03-23T15:31:23;5.03;;;3.03;;
1344;SDS011;15375;48.540;9.268;2024-03-23T15:33:48;2.80;;;2.10;;
1344;SDS011;15375;48.540;9.268;2024-03-23T15:36:14;1.50;;;1.40;;
1344;SDS011;15375;48.540;9.268;2024-03-23T15:38:39;2.30;;;2.10;;
1344;SDS011;15375;48.540;9.268;2024-03-23T15:41:05;2.83;;;1.27;;
1344;SDS011;15375;48.540;9.268;2024-03-23T15:43:30;4.07;;;3.77;;
1344;SDS011;15375;48.540;9.268;2024-03-23T15:46:02;2.20;;;2.00;;
1344;SDS011;15375;48.540;9.268;2024-03-23T15:48:31;2.30;;;1.57;;
1344;SDS011;15375;48.540;9.268;2024-03-23T15:50:58;5.20;;;1.67;;
1344;SDS011;15375;48.540;9.268;2024-03-23T15:53:29;7.60;;;3.10;;
1344;SDS011;15375;48.540;9.268;2024-03-23T15:56:01;2.40;;;1.40;;
1344;SDS011;15375;48.540;9.268;2024-03-23T15:58:28;2.97;;;1.43;;
1344;SDS011;15375;48.540;9.268;2024-03-23T16:00:58;2.93;;;1.87;;
1344;SDS011;15375;48.540;9.268;2024-03-23T16:03:25;1.47;;;1.07;;
1344;SDS011;15375;48.540;9.268;2024-03-23T16:05:56;3.60;;;1.47;;
1344;SDS011;15375;48.540;9.268;2024-03-23T16:08:23;1.87;;;1.77;;
1344;SDS011;15375;48.540;9.268;2024-03-23T16:10:49;0.90;;;0.80;;